Terminal Aerodrome Forecast
Issued by NWS

Home | Current Version | Previous Version | Graphics & Text | Print | Product List | Glossary On
Versions: 1 2 3 4 5 6 7 8 9 10 11 12 13 14 15 16 17 18 19 20
000
FTUS42 KMHX 191700
TAFOAJ
TAF
KOAJ 191737Z 1918/2018 25006KT P6SM BKN035
     FM192000 25008KT P6SM VCTS BKN035CB
     FM200200 29004KT P6SM SCT040 BKN100
     FM200800 35003KT 4SM BR SCT007 BKN100
     FM201300 01005KT P6SM SCT040
      AMD LTD TO CLD VIS AND WIND=

USA.gov is the U.S. government's official web portal to all federal, state and local government web resources and services.